sensor_id;sensor_type;location;lat;lon;timestamp;P1;durP1;ratioP1;P2;durP2;ratioP2
11173;SDS011;5643;50.856;12.088;2022-12-15T00:01:08;21.93;;;16.20;;
11173;SDS011;5643;50.856;12.088;2022-12-15T00:03:52;22.43;;;16.00;;
11173;SDS011;5643;50.856;12.088;2022-12-15T00:06:39;22.17;;;16.40;;
11173;SDS011;5643;50.856;12.088;2022-12-15T00:09:24;23.53;;;16.30;;
11173;SDS011;5643;50.856;12.088;2022-12-15T00:12:09;21.50;;;16.63;;
11173;SDS011;5643;50.856;12.088;2022-12-15T00:14:55;21.97;;;16.53;;
11173;SDS011;5643;50.856;12.088;2022-12-15T00:17:40;22.43;;;17.03;;
11173;SDS011;5643;50.856;12.088;2022-12-15T00:20:25;22.53;;;16.50;;
11173;SDS011;5643;50.856;12.088;2022-12-15T00:23:10;22.43;;;16.37;;
11173;SDS011;5643;50.856;12.088;2022-12-15T00:25:55;20.57;;;15.37;;
11173;SDS011;5643;50.856;12.088;2022-12-15T00:28:40;22.20;;;15.93;;
11173;SDS011;5643;50.856;12.088;2022-12-15T00:31:26;23.43;;;17.07;;
11173;SDS011;5643;50.856;12.088;2022-12-15T00:34:11;21.17;;;15.43;;
11173;SDS011;5643;50.856;12.088;2022-12-15T00:36:55;23.10;;;16.87;;
11173;SDS011;5643;50.856;12.088;2022-12-15T00:39:40;22.70;;;16.73;;
11173;SDS011;5643;50.856;12.088;2022-12-15T00:42:08;21.93;;;16.30;;
11173;SDS011;5643;50.856;12.088;2022-12-15T00:44:36;22.97;;;16.83;;
11173;SDS011;5643;50.856;12.088;2022-12-15T00:47:06;21.50;;;15.70;;
11173;SDS011;5643;50.856;12.088;2022-12-15T00:49:32;21.37;;;15.97;;
11173;SDS011;5643;50.856;12.088;2022-12-15T00:52:17;22.13;;;16.83;;
11173;SDS011;5643;50.856;12.088;2022-12-15T00:55:04;20.70;;;15.73;;
11173;SDS011;5643;50.856;12.088;2022-12-15T00:57:48;22.80;;;16.67;;
11173;SDS011;5643;50.856;12.088;2022-12-15T01:00:34;21.63;;;16.27;;
11173;SDS011;5643;50.856;12.088;2022-12-15T01:03:22;21.13;;;15.90;;
11173;SDS011;5643;50.856;12.088;2022-12-15T01:06:14;24.03;;;16.03;;
11173;SDS011;5643;50.856;12.088;2022-12-15T01:09:11;22.30;;;15.67;;
11173;SDS011;5643;50.856;12.088;2022-12-15T01:11:56;21.40;;;15.07;;
11173;SDS011;5643;50.856;12.088;2022-12-15T01:14:44;23.23;;;16.37;;
11173;SDS011;5643;50.856;12.088;2022-12-15T01:17:28;22.40;;;15.70;;
11173;SDS011;5643;50.856;12.088;2022-12-15T01:20:14;21.07;;;15.30;;
11173;SDS011;5643;50.856;12.088;2022-12-15T01:22:51;20.40;;;15.07;;
11173;SDS011;5643;50.856;12.088;2022-12-15T01:25:19;21.27;;;15.90;;
11173;SDS011;5643;50.856;12.088;2022-12-15T01:27:47;22.80;;;15.67;;
11173;SDS011;5643;50.856;12.088;2022-12-15T01:30:17;22.03;;;15.67;;
11173;SDS011;5643;50.856;12.088;2022-12-15T01:32:48;21.53;;;15.60;;
11173;SDS011;5643;50.856;12.088;2022-12-15T01:35:18;21.57;;;15.17;;
11173;SDS011;5643;50.856;12.088;2022-12-15T01:37:46;19.70;;;15.03;;
11173;SDS011;5643;50.856;12.088;2022-12-15T01:40:15;21.00;;;15.53;;
11173;SDS011;5643;50.856;12.088;2022-12-15T01:43:02;21.93;;;15.67;;
11173;SDS011;5643;50.856;12.088;2022-12-15T01:45:44;23.60;;;16.00;;
11173;SDS011;5643;50.856;12.088;2022-12-15T01:48:14;21.23;;;15.07;;
11173;SDS011;5643;50.856;12.088;2022-12-15T01:50:51;21.83;;;15.37;;
11173;SDS011;5643;50.856;12.088;2022-12-15T01:53:20;20.93;;;15.43;;
11173;SDS011;5643;50.856;12.088;2022-12-15T01:55:50;20.70;;;14.93;;
11173;SDS011;5643;50.856;12.088;2022-12-15T01:58:18;19.17;;;14.60;;
11173;SDS011;5643;50.856;12.088;2022-12-15T02:00:46;19.93;;;14.67;;
11173;SDS011;5643;50.856;12.088;2022-12-15T02:03:14;19.30;;;14.57;;
11173;SDS011;5643;50.856;12.088;2022-12-15T02:05:41;17.90;;;13.83;;
11173;SDS011;5643;50.856;12.088;2022-12-15T02:08:15;19.87;;;13.93;;
11173;SDS011;5643;50.856;12.088;2022-12-15T02:10:53;20.90;;;14.50;;
11173;SDS011;5643;50.856;12.088;2022-12-15T02:13:25;20.67;;;14.40;;
11173;SDS011;5643;50.856;12.088;2022-12-15T02:15:58;18.33;;;14.07;;
11173;SDS011;5643;50.856;12.088;2022-12-15T02:18:49;20.83;;;15.30;;
11173;SDS011;5643;50.856;12.088;2022-12-15T02:21:36;19.17;;;13.63;;
11173;SDS011;5643;50.856;12.088;2022-12-15T02:26:58;18.33;;;14.07;;
11173;SDS011;5643;50.856;12.088;2022-12-15T02:29:39;21.00;;;15.23;;
11173;SDS011;5643;50.856;12.088;2022-12-15T02:32:23;20.80;;;15.03;;
11173;SDS011;5643;50.856;12.088;2022-12-15T02:35:02;21.00;;;15.83;;
11173;SDS011;5643;50.856;12.088;2022-12-15T02:37:40;21.03;;;14.40;;
11173;SDS011;5643;50.856;12.088;2022-12-15T02:40:34;19.90;;;14.10;;
11173;SDS011;5643;50.856;12.088;2022-12-15T02:43:21;19.90;;;13.67;;
11173;SDS011;5643;50.856;12.088;2022-12-15T02:46:10;18.67;;;13.60;;
11173;SDS011;5643;50.856;12.088;2022-12-15T02:49:05;18.03;;;13.30;;
11173;SDS011;5643;50.856;12.088;2022-12-15T02:51:43;19.47;;;13.30;;
11173;SDS011;5643;50.856;12.088;2022-12-15T02:54:26;19.60;;;13.47;;
11173;SDS011;5643;50.856;12.088;2022-12-15T02:57:09;19.73;;;14.23;;
11173;SDS011;5643;50.856;12.088;2022-12-15T02:59:41;17.27;;;13.27;;
11173;SDS011;5643;50.856;12.088;2022-12-15T03:02:12;18.10;;;13.17;;
11173;SDS011;5643;50.856;12.088;2022-12-15T03:04:41;17.20;;;12.90;;
11173;SDS011;5643;50.856;12.088;2022-12-15T03:07:09;18.70;;;13.60;;
11173;SDS011;5643;50.856;12.088;2022-12-15T03:09:36;17.97;;;13.03;;
11173;SDS011;5643;50.856;12.088;2022-12-15T03:12:04;21.10;;;14.67;;
11173;SDS011;5643;50.856;12.088;2022-12-15T03:14:32;20.40;;;14.43;;
11173;SDS011;5643;50.856;12.088;2022-12-15T03:16:59;19.63;;;14.33;;
11173;SDS011;5643;50.856;12.088;2022-12-15T03:19:27;22.43;;;15.40;;
11173;SDS011;5643;50.856;12.088;2022-12-15T03:21:55;20.50;;;15.93;;
11173;SDS011;5643;50.856;12.088;2022-12-15T03:24:22;19.77;;;14.67;;
11173;SDS011;5643;50.856;12.088;2022-12-15T03:26:51;19.67;;;14.70;;
11173;SDS011;5643;50.856;12.088;2022-12-15T03:29:18;18.73;;;14.17;;
11173;SDS011;5643;50.856;12.088;2022-12-15T03:31:45;19.07;;;13.67;;
11173;SDS011;5643;50.856;12.088;2022-12-15T03:34:12;18.83;;;13.30;;
11173;SDS011;5643;50.856;12.088;2022-12-15T03:36:39;19.60;;;13.27;;
11173;SDS011;5643;50.856;12.088;2022-12-15T03:39:08;20.10;;;13.60;;
11173;SDS011;5643;50.856;12.088;2022-12-15T03:41:36;19.03;;;13.80;;
11173;SDS011;5643;50.856;12.088;2022-12-15T03:44:03;17.87;;;13.27;;
11173;SDS011;5643;50.856;12.088;2022-12-15T03:46:31;17.70;;;12.63;;
11173;SDS011;5643;50.856;12.088;2022-12-15T03:48:58;18.10;;;13.60;;
11173;SDS011;5643;50.856;12.088;2022-12-15T03:51:26;19.63;;;13.70;;
11173;SDS011;5643;50.856;12.088;2022-12-15T03:53:53;18.87;;;14.23;;
11173;SDS011;5643;50.856;12.088;2022-12-15T03:56:23;18.90;;;13.63;;
11173;SDS011;5643;50.856;12.088;2022-12-15T03:58:50;18.33;;;13.70;;
11173;SDS011;5643;50.856;12.088;2022-12-15T04:01:18;17.30;;;12.97;;
11173;SDS011;5643;50.856;12.088;2022-12-15T04:03:49;26.70;;;17.50;;
11173;SDS011;5643;50.856;12.088;2022-12-15T04:06:16;52.60;;;27.80;;
11173;SDS011;5643;50.856;12.088;2022-12-15T04:08:43;59.57;;;30.03;;
11173;SDS011;5643;50.856;12.088;2022-12-15T04:11:10;54.80;;;28.20;;
11173;SDS011;5643;50.856;12.088;2022-12-15T04:13:39;44.53;;;23.83;;
11173;SDS011;5643;50.856;12.088;2022-12-15T04:16:08;31.03;;;18.03;;
11173;SDS011;5643;50.856;12.088;2022-12-15T04:18:35;26.33;;;17.20;;
11173;SDS011;5643;50.856;12.088;2022-12-15T04:21:03;23.10;;;15.40;;
11173;SDS011;5643;50.856;12.088;2022-12-15T04:23:29;21.80;;;15.10;;
11173;SDS011;5643;50.856;12.088;2022-12-15T04:25:56;22.33;;;14.70;;
11173;SDS011;5643;50.856;12.088;2022-12-15T04:28:42;22.23;;;15.17;;
11173;SDS011;5643;50.856;12.088;2022-12-15T04:31:27;19.80;;;14.53;;
11173;SDS011;5643;50.856;12.088;2022-12-15T04:34:14;24.27;;;16.07;;
11173;SDS011;5643;50.856;12.088;2022-12-15T04:36:59;24.13;;;15.27;;
11173;SDS011;5643;50.856;12.088;2022-12-15T04:39:47;24.07;;;15.53;;
11173;SDS011;5643;50.856;12.088;2022-12-15T04:42:35;25.47;;;16.03;;
11173;SDS011;5643;50.856;12.088;2022-12-15T04:45:22;22.50;;;14.53;;
11173;SDS011;5643;50.856;12.088;2022-12-15T04:48:07;22.50;;;14.97;;
11173;SDS011;5643;50.856;12.088;2022-12-15T04:50:52;22.93;;;15.43;;
11173;SDS011;5643;50.856;12.088;2022-12-15T04:53:37;20.80;;;14.83;;
11173;SDS011;5643;50.856;12.088;2022-12-15T04:56:22;21.00;;;13.47;;
11173;SDS011;5643;50.856;12.088;2022-12-15T04:59:06;18.47;;;13.50;;
11173;SDS011;5643;50.856;12.088;2022-12-15T05:01:52;18.43;;;13.37;;
11173;SDS011;5643;50.856;12.088;2022-12-15T05:04:37;16.53;;;12.03;;
11173;SDS011;5643;50.856;12.088;2022-12-15T05:07:22;18.27;;;13.00;;
11173;SDS011;5643;50.856;12.088;2022-12-15T05:10:08;18.03;;;12.63;;
11173;SDS011;5643;50.856;12.088;2022-12-15T05:12:52;17.93;;;12.93;;
11173;SDS011;5643;50.856;12.088;2022-12-15T05:15:38;19.30;;;13.67;;
11173;SDS011;5643;50.856;12.088;2022-12-15T05:18:24;16.90;;;12.27;;
11173;SDS011;5643;50.856;12.088;2022-12-15T05:21:09;16.73;;;12.10;;
11173;SDS011;5643;50.856;12.088;2022-12-15T05:23:53;15.27;;;11.63;;
11173;SDS011;5643;50.856;12.088;2022-12-15T05:26:38;15.67;;;12.17;;
11173;SDS011;5643;50.856;12.088;2022-12-15T05:29:23;16.67;;;11.80;;
11173;SDS011;5643;50.856;12.088;2022-12-15T05:32:07;18.47;;;13.33;;
11173;SDS011;5643;50.856;12.088;2022-12-15T05:34:37;17.97;;;12.63;;
11173;SDS011;5643;50.856;12.088;2022-12-15T05:37:05;16.97;;;12.83;;
11173;SDS011;5643;50.856;12.088;2022-12-15T05:39:34;18.97;;;13.03;;
11173;SDS011;5643;50.856;12.088;2022-12-15T05:42:01;19.57;;;13.17;;
11173;SDS011;5643;50.856;12.088;2022-12-15T05:44:29;17.53;;;12.47;;
11173;SDS011;5643;50.856;12.088;2022-12-15T05:46:59;16.27;;;11.73;;
11173;SDS011;5643;50.856;12.088;2022-12-15T05:49:26;15.83;;;11.87;;
11173;SDS011;5643;50.856;12.088;2022-12-15T05:51:55;17.73;;;12.63;;
11173;SDS011;5643;50.856;12.088;2022-12-15T05:54:22;15.17;;;11.47;;
11173;SDS011;5643;50.856;12.088;2022-12-15T05:56:50;15.97;;;11.57;;
11173;SDS011;5643;50.856;12.088;2022-12-15T05:59:19;17.43;;;11.93;;
11173;SDS011;5643;50.856;12.088;2022-12-15T06:01:47;15.70;;;12.20;;
11173;SDS011;5643;50.856;12.088;2022-12-15T06:04:14;14.93;;;11.30;;
11173;SDS011;5643;50.856;12.088;2022-12-15T06:06:41;16.07;;;11.57;;
11173;SDS011;5643;50.856;12.088;2022-12-15T06:09:11;14.93;;;11.20;;
11173;SDS011;5643;50.856;12.088;2022-12-15T06:11:40;16.47;;;11.73;;
11173;SDS011;5643;50.856;12.088;2022-12-15T06:14:07;15.53;;;11.63;;
11173;SDS011;5643;50.856;12.088;2022-12-15T06:16:39;16.53;;;12.37;;
11173;SDS011;5643;50.856;12.088;2022-12-15T06:19:07;14.93;;;11.80;;
11173;SDS011;5643;50.856;12.088;2022-12-15T06:21:34;16.43;;;12.33;;
11173;SDS011;5643;50.856;12.088;2022-12-15T06:24:05;16.97;;;12.13;;
11173;SDS011;5643;50.856;12.088;2022-12-15T06:26:35;16.83;;;12.13;;
11173;SDS011;5643;50.856;12.088;2022-12-15T06:29:04;18.60;;;12.93;;
11173;SDS011;5643;50.856;12.088;2022-12-15T06:31:32;15.80;;;11.83;;
11173;SDS011;5643;50.856;12.088;2022-12-15T06:34:01;16.57;;;11.57;;
11173;SDS011;5643;50.856;12.088;2022-12-15T06:36:36;17.47;;;11.70;;
11173;SDS011;5643;50.856;12.088;2022-12-15T06:39:04;16.70;;;11.70;;
11173;SDS011;5643;50.856;12.088;2022-12-15T06:41:35;15.03;;;11.07;;
11173;SDS011;5643;50.856;12.088;2022-12-15T06:44:03;15.83;;;12.20;;
11173;SDS011;5643;50.856;12.088;2022-12-15T06:46:34;17.63;;;12.50;;
11173;SDS011;5643;50.856;12.088;2022-12-15T06:49:02;16.20;;;12.40;;
11173;SDS011;5643;50.856;12.088;2022-12-15T06:51:29;15.83;;;11.87;;
11173;SDS011;5643;50.856;12.088;2022-12-15T06:53:56;17.23;;;12.57;;
11173;SDS011;5643;50.856;12.088;2022-12-15T06:56:27;17.33;;;12.40;;
11173;SDS011;5643;50.856;12.088;2022-12-15T06:58:57;16.37;;;12.03;;
11173;SDS011;5643;50.856;12.088;2022-12-15T07:01:24;15.87;;;11.30;;
11173;SDS011;5643;50.856;12.088;2022-12-15T07:03:54;16.50;;;11.90;;
11173;SDS011;5643;50.856;12.088;2022-12-15T07:06:21;16.90;;;11.53;;
11173;SDS011;5643;50.856;12.088;2022-12-15T07:08:49;16.30;;;12.20;;
11173;SDS011;5643;50.856;12.088;2022-12-15T07:11:19;15.03;;;10.83;;
11173;SDS011;5643;50.856;12.088;2022-12-15T07:13:47;16.03;;;11.43;;
11173;SDS011;5643;50.856;12.088;2022-12-15T07:16:16;16.87;;;11.87;;
11173;SDS011;5643;50.856;12.088;2022-12-15T07:18:43;17.47;;;12.23;;
11173;SDS011;5643;50.856;12.088;2022-12-15T07:21:11;16.57;;;11.73;;
11173;SDS011;5643;50.856;12.088;2022-12-15T07:23:39;16.80;;;12.20;;
11173;SDS011;5643;50.856;12.088;2022-12-15T07:26:07;15.83;;;11.63;;
11173;SDS011;5643;50.856;12.088;2022-12-15T07:28:36;15.27;;;10.77;;
11173;SDS011;5643;50.856;12.088;2022-12-15T07:31:03;15.63;;;11.80;;
11173;SDS011;5643;50.856;12.088;2022-12-15T07:33:32;14.93;;;10.53;;
11173;SDS011;5643;50.856;12.088;2022-12-15T07:36:00;15.23;;;11.37;;
11173;SDS011;5643;50.856;12.088;2022-12-15T07:38:28;16.53;;;11.97;;
11173;SDS011;5643;50.856;12.088;2022-12-15T07:40:58;15.93;;;11.70;;
11173;SDS011;5643;50.856;12.088;2022-12-15T07:43:26;15.83;;;10.83;;
11173;SDS011;5643;50.856;12.088;2022-12-15T07:45:54;15.67;;;11.40;;
11173;SDS011;5643;50.856;12.088;2022-12-15T07:48:22;15.63;;;11.33;;
11173;SDS011;5643;50.856;12.088;2022-12-15T07:50:51;17.43;;;12.77;;
11173;SDS011;5643;50.856;12.088;2022-12-15T07:53:23;16.63;;;11.90;;
11173;SDS011;5643;50.856;12.088;2022-12-15T07:55:55;16.00;;;12.13;;
11173;SDS011;5643;50.856;12.088;2022-12-15T07:58:28;18.53;;;12.83;;
11173;SDS011;5643;50.856;12.088;2022-12-15T08:00:57;16.40;;;12.30;;
11173;SDS011;5643;50.856;12.088;2022-12-15T08:03:25;16.80;;;12.27;;
11173;SDS011;5643;50.856;12.088;2022-12-15T08:06:01;17.10;;;12.67;;
11173;SDS011;5643;50.856;12.088;2022-12-15T08:08:31;18.57;;;12.90;;
11173;SDS011;5643;50.856;12.088;2022-12-15T08:11:02;17.17;;;12.83;;
11173;SDS011;5643;50.856;12.088;2022-12-15T08:13:29;18.37;;;12.90;;
11173;SDS011;5643;50.856;12.088;2022-12-15T08:15:57;16.77;;;12.77;;
11173;SDS011;5643;50.856;12.088;2022-12-15T08:18:27;17.63;;;13.20;;
11173;SDS011;5643;50.856;12.088;2022-12-15T08:21:02;19.03;;;14.27;;
11173;SDS011;5643;50.856;12.088;2022-12-15T08:23:29;19.77;;;14.57;;
11173;SDS011;5643;50.856;12.088;2022-12-15T08:26:00;18.17;;;13.30;;
11173;SDS011;5643;50.856;12.088;2022-12-15T08:28:30;17.97;;;13.93;;
11173;SDS011;5643;50.856;12.088;2022-12-15T08:31:08;19.03;;;13.73;;
11173;SDS011;5643;50.856;12.088;2022-12-15T08:33:36;19.17;;;13.90;;
11173;SDS011;5643;50.856;12.088;2022-12-15T08:36:08;17.70;;;13.47;;
11173;SDS011;5643;50.856;12.088;2022-12-15T08:38:36;16.73;;;12.83;;
11173;SDS011;5643;50.856;12.088;2022-12-15T08:41:08;20.50;;;15.47;;
11173;SDS011;5643;50.856;12.088;2022-12-15T08:43:36;18.13;;;13.93;;
11173;SDS011;5643;50.856;12.088;2022-12-15T08:46:03;16.17;;;11.80;;
11173;SDS011;5643;50.856;12.088;2022-12-15T08:48:31;16.20;;;12.70;;
11173;SDS011;5643;50.856;12.088;2022-12-15T08:50:58;18.90;;;13.77;;
11173;SDS011;5643;50.856;12.088;2022-12-15T08:53:28;14.27;;;11.93;;
11173;SDS011;5643;50.856;12.088;2022-12-15T08:55:57;16.03;;;12.23;;
11173;SDS011;5643;50.856;12.088;2022-12-15T08:58:26;15.97;;;12.17;;
11173;SDS011;5643;50.856;12.088;2022-12-15T09:00:58;15.80;;;12.73;;
11173;SDS011;5643;50.856;12.088;2022-12-15T09:03:25;16.70;;;12.63;;
11173;SDS011;5643;50.856;12.088;2022-12-15T09:05:55;23.23;;;18.00;;
11173;SDS011;5643;50.856;12.088;2022-12-15T09:08:28;29.50;;;21.87;;
11173;SDS011;5643;50.856;12.088;2022-12-15T09:10:56;27.57;;;19.97;;
11173;SDS011;5643;50.856;12.088;2022-12-15T09:13:23;24.13;;;18.47;;
11173;SDS011;5643;50.856;12.088;2022-12-15T09:15:54;24.23;;;18.93;;
11173;SDS011;5643;50.856;12.088;2022-12-15T09:18:24;23.60;;;17.57;;
11173;SDS011;5643;50.856;12.088;2022-12-15T09:20:52;21.67;;;17.13;;
11173;SDS011;5643;50.856;12.088;2022-12-15T09:23:19;23.53;;;17.00;;
11173;SDS011;5643;50.856;12.088;2022-12-15T09:25:48;20.40;;;15.70;;
11173;SDS011;5643;50.856;12.088;2022-12-15T09:28:16;18.33;;;14.20;;
11173;SDS011;5643;50.856;12.088;2022-12-15T09:30:44;19.27;;;14.43;;
11173;SDS011;5643;50.856;12.088;2022-12-15T09:33:12;19.67;;;14.50;;
11173;SDS011;5643;50.856;12.088;2022-12-15T09:35:39;19.03;;;14.50;;
11173;SDS011;5643;50.856;12.088;2022-12-15T09:38:06;18.83;;;14.23;;
11173;SDS011;5643;50.856;12.088;2022-12-15T09:40:33;18.23;;;13.97;;
11173;SDS011;5643;50.856;12.088;2022-12-15T09:43:03;20.80;;;15.50;;
11173;SDS011;5643;50.856;12.088;2022-12-15T09:45:33;21.87;;;16.30;;
11173;SDS011;5643;50.856;12.088;2022-12-15T09:48:05;18.07;;;15.03;;
11173;SDS011;5643;50.856;12.088;2022-12-15T09:50:35;18.30;;;14.10;;
11173;SDS011;5643;50.856;12.088;2022-12-15T09:53:07;17.47;;;14.10;;
11173;SDS011;5643;50.856;12.088;2022-12-15T09:55:37;17.37;;;13.40;;
11173;SDS011;5643;50.856;12.088;2022-12-15T09:58:10;16.30;;;13.83;;
11173;SDS011;5643;50.856;12.088;2022-12-15T10:00:45;15.43;;;12.83;;
11173;SDS011;5643;50.856;12.088;2022-12-15T10:03:30;15.33;;;12.67;;
11173;SDS011;5643;50.856;12.088;2022-12-15T10:06:02;17.00;;;13.57;;
11173;SDS011;5643;50.856;12.088;2022-12-15T10:08:32;16.20;;;12.60;;
11173;SDS011;5643;50.856;12.088;2022-12-15T10:11:00;15.30;;;12.50;;
11173;SDS011;5643;50.856;12.088;2022-12-15T10:13:35;15.97;;;13.03;;
11173;SDS011;5643;50.856;12.088;2022-12-15T10:16:12;14.37;;;12.17;;
11173;SDS011;5643;50.856;12.088;2022-12-15T10:18:47;15.90;;;12.60;;
11173;SDS011;5643;50.856;12.088;2022-12-15T10:21:16;13.03;;;10.70;;
11173;SDS011;5643;50.856;12.088;2022-12-15T10:23:47;13.90;;;11.10;;
11173;SDS011;5643;50.856;12.088;2022-12-15T10:26:17;12.13;;;10.57;;
11173;SDS011;5643;50.856;12.088;2022-12-15T10:28:53;13.50;;;10.67;;
11173;SDS011;5643;50.856;12.088;2022-12-15T10:31:29;12.30;;;9.87;;
11173;SDS011;5643;50.856;12.088;2022-12-15T10:34:08;10.97;;;9.40;;
11173;SDS011;5643;50.856;12.088;2022-12-15T10:36:36;12.00;;;10.10;;
11173;SDS011;5643;50.856;12.088;2022-12-15T10:39:03;12.00;;;9.77;;
11173;SDS011;5643;50.856;12.088;2022-12-15T10:41:31;11.70;;;9.47;;
11173;SDS011;5643;50.856;12.088;2022-12-15T10:44:00;12.30;;;10.07;;
11173;SDS011;5643;50.856;12.088;2022-12-15T10:46:28;10.83;;;9.33;;
11173;SDS011;5643;50.856;12.088;2022-12-15T10:48:56;10.40;;;9.00;;
11173;SDS011;5643;50.856;12.088;2022-12-15T10:51:25;10.73;;;8.80;;
11173;SDS011;5643;50.856;12.088;2022-12-15T10:54:02;11.07;;;9.57;;
11173;SDS011;5643;50.856;12.088;2022-12-15T10:56:44;10.43;;;9.33;;
11173;SDS011;5643;50.856;12.088;2022-12-15T10:59:23;12.37;;;9.87;;
11173;SDS011;5643;50.856;12.088;2022-12-15T11:01:51;11.40;;;9.93;;
11173;SDS011;5643;50.856;12.088;2022-12-15T11:04:25;14.03;;;11.03;;
11173;SDS011;5643;50.856;12.088;2022-12-15T11:06:55;12.70;;;10.63;;
11173;SDS011;5643;50.856;12.088;2022-12-15T11:09:25;12.47;;;10.80;;
11173;SDS011;5643;50.856;12.088;2022-12-15T11:11:53;11.37;;;9.57;;
11173;SDS011;5643;50.856;12.088;2022-12-15T11:14:43;12.33;;;10.47;;
11173;SDS011;5643;50.856;12.088;2022-12-15T11:17:13;12.10;;;10.10;;
11173;SDS011;5643;50.856;12.088;2022-12-15T11:19:43;11.60;;;9.83;;
11173;SDS011;5643;50.856;12.088;2022-12-15T11:22:14;11.30;;;9.70;;
11173;SDS011;5643;50.856;12.088;2022-12-15T11:24:42;11.33;;;9.97;;
11173;SDS011;5643;50.856;12.088;2022-12-15T11:27:18;10.67;;;8.97;;
11173;SDS011;5643;50.856;12.088;2022-12-15T11:30:00;10.93;;;9.37;;
11173;SDS011;5643;50.856;12.088;2022-12-15T11:32:31;10.33;;;8.73;;
11173;SDS011;5643;50.856;12.088;2022-12-15T11:35:00;10.63;;;8.80;;
11173;SDS011;5643;50.856;12.088;2022-12-15T11:37:34;9.93;;;8.83;;
11173;SDS011;5643;50.856;12.088;2022-12-15T11:40:11;10.00;;;9.00;;
11173;SDS011;5643;50.856;12.088;2022-12-15T11:42:43;11.90;;;9.40;;
11173;SDS011;5643;50.856;12.088;2022-12-15T11:45:16;11.30;;;9.67;;
11173;SDS011;5643;50.856;12.088;2022-12-15T11:47:47;10.23;;;9.13;;
11173;SDS011;5643;50.856;12.088;2022-12-15T11:50:16;10.97;;;9.00;;
11173;SDS011;5643;50.856;12.088;2022-12-15T11:52:49;9.70;;;8.57;;
11173;SDS011;5643;50.856;12.088;2022-12-15T11:55:21;11.60;;;9.77;;
11173;SDS011;5643;50.856;12.088;2022-12-15T11:57:57;12.83;;;10.70;;
11173;SDS011;5643;50.856;12.088;2022-12-15T12:00:32;11.37;;;9.63;;
11173;SDS011;5643;50.856;12.088;2022-12-15T12:03:04;11.63;;;9.53;;
11173;SDS011;5643;50.856;12.088;2022-12-15T12:05:40;11.97;;;9.90;;
11173;SDS011;5643;50.856;12.088;2022-12-15T12:08:23;11.30;;;9.50;;
11173;SDS011;5643;50.856;12.088;2022-12-15T12:10:56;11.90;;;10.03;;
11173;SDS011;5643;50.856;12.088;2022-12-15T12:13:27;10.67;;;9.50;;
11173;SDS011;5643;50.856;12.088;2022-12-15T12:15:59;11.40;;;9.83;;
11173;SDS011;5643;50.856;12.088;2022-12-15T12:18:35;11.27;;;9.53;;
11173;SDS011;5643;50.856;12.088;2022-12-15T12:21:05;11.43;;;9.17;;
11173;SDS011;5643;50.856;12.088;2022-12-15T12:23:36;14.17;;;11.73;;
11173;SDS011;5643;50.856;12.088;2022-12-15T12:26:09;12.70;;;10.17;;
11173;SDS011;5643;50.856;12.088;2022-12-15T12:28:41;12.00;;;9.77;;
11173;SDS011;5643;50.856;12.088;2022-12-15T12:31:14;10.60;;;9.47;;
11173;SDS011;5643;50.856;12.088;2022-12-15T12:33:45;11.43;;;9.60;;
11173;SDS011;5643;50.856;12.088;2022-12-15T12:36:17;10.00;;;8.87;;
11173;SDS011;5643;50.856;12.088;2022-12-15T12:38:46;9.70;;;8.60;;
11173;SDS011;5643;50.856;12.088;2022-12-15T12:41:15;9.87;;;8.50;;
11173;SDS011;5643;50.856;12.088;2022-12-15T12:43:44;9.53;;;7.83;;
11173;SDS011;5643;50.856;12.088;2022-12-15T12:46:16;10.23;;;8.30;;
11173;SDS011;5643;50.856;12.088;2022-12-15T12:48:47;9.43;;;8.27;;
11173;SDS011;5643;50.856;12.088;2022-12-15T12:51:21;10.17;;;7.67;;
11173;SDS011;5643;50.856;12.088;2022-12-15T12:53:49;9.20;;;8.17;;
11173;SDS011;5643;50.856;12.088;2022-12-15T12:56:37;9.20;;;8.10;;
11173;SDS011;5643;50.856;12.088;2022-12-15T12:59:30;9.53;;;7.40;;
11173;SDS011;5643;50.856;12.088;2022-12-15T13:04:49;11.60;;;8.90;;
11173;SDS011;5643;50.856;12.088;2022-12-15T13:07:27;9.77;;;8.40;;
11173;SDS011;5643;50.856;12.088;2022-12-15T13:10:00;10.77;;;8.63;;
11173;SDS011;5643;50.856;12.088;2022-12-15T13:12:34;9.53;;;8.23;;
11173;SDS011;5643;50.856;12.088;2022-12-15T13:15:04;11.67;;;8.97;;
11173;SDS011;5643;50.856;12.088;2022-12-15T13:17:39;10.83;;;8.70;;
11173;SDS011;5643;50.856;12.088;2022-12-15T13:22:54;9.90;;;8.03;;
11173;SDS011;5643;50.856;12.088;2022-12-15T13:25:33;10.00;;;8.40;;
11173;SDS011;5643;50.856;12.088;2022-12-15T13:28:09;10.27;;;8.43;;
11173;SDS011;5643;50.856;12.088;2022-12-15T13:33:44;9.03;;;8.00;;
11173;SDS011;5643;50.856;12.088;2022-12-15T13:36:18;10.07;;;8.70;;
11173;SDS011;5643;50.856;12.088;2022-12-15T13:39:31;8.53;;;7.63;;
11173;SDS011;5643;50.856;12.088;2022-12-15T13:44:50;10.00;;;8.40;;
11173;SDS011;5643;50.856;12.088;2022-12-15T13:47:19;9.97;;;8.57;;
11173;SDS011;5643;50.856;12.088;2022-12-15T13:49:51;10.73;;;9.33;;
11173;SDS011;5643;50.856;12.088;2022-12-15T13:52:31;11.53;;;9.63;;
11173;SDS011;5643;50.856;12.088;2022-12-15T13:54:59;9.80;;;8.70;;
11173;SDS011;5643;50.856;12.088;2022-12-15T13:57:27;10.63;;;9.33;;
11173;SDS011;5643;50.856;12.088;2022-12-15T13:59:56;10.37;;;8.90;;
11173;SDS011;5643;50.856;12.088;2022-12-15T14:02:32;9.77;;;8.77;;
11173;SDS011;5643;50.856;12.088;2022-12-15T14:05:06;10.03;;;8.53;;
11173;SDS011;5643;50.856;12.088;2022-12-15T14:07:37;9.93;;;8.63;;
11173;SDS011;5643;50.856;12.088;2022-12-15T14:10:06;10.03;;;8.83;;
11173;SDS011;5643;50.856;12.088;2022-12-15T14:12:43;10.77;;;8.93;;
11173;SDS011;5643;50.856;12.088;2022-12-15T14:15:11;10.90;;;8.97;;
11173;SDS011;5643;50.856;12.088;2022-12-15T14:17:39;11.27;;;9.20;;
11173;SDS011;5643;50.856;12.088;2022-12-15T14:20:12;9.07;;;8.17;;
11173;SDS011;5643;50.856;12.088;2022-12-15T14:22:57;10.37;;;9.27;;
11173;SDS011;5643;50.856;12.088;2022-12-15T14:25:25;9.90;;;8.90;;
11173;SDS011;5643;50.856;12.088;2022-12-15T14:27:53;10.17;;;8.37;;
11173;SDS011;5643;50.856;12.088;2022-12-15T14:30:22;9.57;;;8.27;;
11173;SDS011;5643;50.856;12.088;2022-12-15T14:32:51;9.67;;;8.33;;
11173;SDS011;5643;50.856;12.088;2022-12-15T14:35:23;10.43;;;8.77;;
11173;SDS011;5643;50.856;12.088;2022-12-15T14:37:51;9.27;;;8.20;;
11173;SDS011;5643;50.856;12.088;2022-12-15T14:40:19;11.03;;;8.97;;
11173;SDS011;5643;50.856;12.088;2022-12-15T14:42:47;10.13;;;8.20;;
11173;SDS011;5643;50.856;12.088;2022-12-15T14:45:17;10.30;;;8.13;;
11173;SDS011;5643;50.856;12.088;2022-12-15T14:47:49;11.33;;;8.90;;
11173;SDS011;5643;50.856;12.088;2022-12-15T14:50:17;10.40;;;8.53;;
11173;SDS011;5643;50.856;12.088;2022-12-15T14:52:47;10.27;;;8.80;;
11173;SDS011;5643;50.856;12.088;2022-12-15T14:55:30;12.07;;;9.03;;
11173;SDS011;5643;50.856;12.088;2022-12-15T14:57:58;10.53;;;8.77;;
11173;SDS011;5643;50.856;12.088;2022-12-15T15:00:26;11.20;;;9.10;;
11173;SDS011;5643;50.856;12.088;2022-12-15T15:05:39;11.00;;;9.00;;
11173;SDS011;5643;50.856;12.088;2022-12-15T15:08:11;11.43;;;9.00;;
11173;SDS011;5643;50.856;12.088;2022-12-15T15:10:40;13.13;;;8.83;;
11173;SDS011;5643;50.856;12.088;2022-12-15T15:13:12;12.60;;;9.80;;
11173;SDS011;5643;50.856;12.088;2022-12-15T15:15:40;13.17;;;10.30;;
11173;SDS011;5643;50.856;12.088;2022-12-15T15:18:12;12.83;;;10.07;;